Time;durP1;ratioP1;P1;durP2;ratioP2;P2;SDS_P1;SDS_P2;PMS_P1;PMS_P2;Temp;Humidity;BMP_temperature;BMP_pressure;BME280_temperature;BME280_humidity;BME280_pressure;Samples;Min_cycle;Max_cycle;Signal;HPM_P1;HPM_P2
2023/06/04 00:02:04;;;;;;;6.68;1.95;;;10.50;99.90;;;;;;5014827;28;20135;-80
2023/06/04 00:04:30;;;;;;;7.25;2.38;;;10.50;99.90;;;;;;5049317;28;20085;-81
2023/06/04 00:06:55;;;;;;;9.02;2.30;;;11.80;99.90;;;;;;5048451;28;20043;-81
2023/06/04 00:09:21;;;;;;;5.72;2.20;;;10.40;99.90;;;;;;5032295;28;20047;-81
2023/06/04 00:11:47;;;;;;;4.57;2.10;;;10.40;99.90;;;;;;5049892;28;20082;-79
2023/06/04 00:14:14;;;;;;;6.53;2.35;;;10.40;99.90;;;;;;5051939;28;20047;-80
2023/06/04 00:16:40;;;;;;;4.22;2.25;;;10.40;99.90;;;;;;5037534;28;20051;-80
2023/06/04 00:19:06;;;;;;;5.28;2.40;;;10.40;99.90;;;;;;5035016;28;20044;-80
2023/06/04 00:21:32;;;;;;;5.80;2.35;;;10.30;99.90;;;;;;5036276;28;20527;-81
2023/06/04 00:23:59;;;;;;;4.20;2.38;;;10.30;99.90;;;;;;5019484;28;20075;-81
2023/06/04 00:26:25;;;;;;;3.95;2.35;;;10.30;99.90;;;;;;5052107;28;20044;-81
2023/06/04 00:28:51;;;;;;;3.67;1.90;;;10.20;99.90;;;;;;5069572;28;20046;-81
2023/06/04 00:31:16;;;;;;;5.55;2.00;;;10.80;99.90;;;;;;5034792;28;20127;-80
2023/06/04 00:33:42;;;;;;;3.58;1.90;;;10.20;99.90;;;;;;5036617;28;20044;-80
2023/06/04 00:36:08;;;;;;;6.10;2.42;;;11.00;99.90;;;;;;5051012;28;20036;-82
2023/06/04 00:38:34;;;;;;;5.97;2.03;;;10.20;99.90;;;;;;5052951;28;20140;-82
2023/06/04 00:41:00;;;;;;;7.30;2.13;;;10.10;99.90;;;;;;5068325;28;20476;-82
2023/06/04 00:43:27;;;;;;;3.47;1.42;;;10.10;99.90;;;;;;5052156;28;20044;-82
2023/06/04 00:45:53;;;;;;;4.20;2.40;;;10.10;99.90;;;;;;5052423;28;20048;-81
2023/06/04 00:48:20;;;;;;;4.40;1.88;;;10.10;99.90;;;;;;5034416;28;20044;-80
2023/06/04 00:50:48;;;;;;;3.50;2.50;;;10.00;99.90;;;;;;5069601;28;20040;-80
2023/06/04 00:53:14;;;;;;;4.18;2.90;;;10.00;99.90;;;;;;5035132;28;20083;-81
2023/06/04 00:55:40;;;;;;;2.67;1.70;;;11.40;99.90;;;;;;5069645;28;20444;-80
2023/06/04 00:58:05;;;;;;;4.60;1.70;;;9.90;99.90;;;;;;5051364;28;20521;-81
2023/06/04 01:00:32;;;;;;;5.50;2.33;;;9.90;99.90;;;;;;5051681;28;20067;-80
2023/06/04 01:03:02;;;;;;;5.65;2.33;;;9.90;99.90;;;;;;5068407;28;20036;-81
2023/06/04 01:05:40;;;;;;;6.40;2.72;;;9.90;99.90;;;;;;5064326;28;20048;-80
2023/06/04 01:08:08;;;;;;;4.20;1.92;;;9.80;99.90;;;;;;5049626;28;20048;-81
2023/06/04 01:10:35;;;;;;;7.13;2.40;;;9.90;99.90;;;;;;5031738;28;20711;-80
2023/06/04 01:13:01;;;;;;;6.30;2.45;;;10.50;99.90;;;;;;5048860;28;20080;-82
2023/06/04 01:15:26;;;;;;;5.20;1.48;;;9.80;99.90;;;;;;5064787;28;20070;-81
2023/06/04 01:18:02;;;;;;;5.38;2.13;;;10.90;99.90;;;;;;5031146;28;20127;-81
2023/06/04 01:20:42;;;;;;;3.05;1.75;;;10.10;99.90;;;;;;5065305;28;20131;-81
2023/06/04 01:23:42;;;;;;;3.85;2.20;;;9.70;99.90;;;;;;5063248;28;20044;-81
2023/06/04 01:26:10;;;;;;;3.90;2.20;;;9.70;99.90;;;;;;5064801;28;20045;-80
2023/06/04 01:28:37;;;;;;;3.97;2.00;;;10.20;99.90;;;;;;5065196;28;20093;-80
2023/06/04 01:31:04;;;;;;;8.10;2.20;;;10.80;99.90;;;;;;5048092;28;20056;-80
2023/06/04 01:33:30;;;;;;;9.68;2.45;;;10.60;99.90;;;;;;5048490;28;20488;-81
2023/06/04 01:35:56;;;;;;;4.60;1.92;;;10.70;99.90;;;;;;5063533;28;20075;-81
2023/06/04 01:38:21;;;;;;;5.00;2.30;;;9.50;99.90;;;;;;5049167;28;20036;-81
2023/06/04 01:40:47;;;;;;;3.22;1.73;;;9.60;99.90;;;;;;5033076;28;20082;-80
2023/06/04 01:43:13;;;;;;;3.65;1.80;;;9.40;99.90;;;;;;5065683;28;20043;-80
2023/06/04 01:45:39;;;;;;;5.32;2.40;;;9.40;99.90;;;;;;5048755;28;20086;-82
2023/06/04 01:48:05;;;;;;;8.60;2.10;;;9.70;99.90;;;;;;5064672;28;20053;-81
2023/06/04 01:50:31;;;;;;;4.78;1.88;;;9.30;99.90;;;;;;5032100;28;20076;-81
2023/06/04 01:52:57;;;;;;;4.05;2.25;;;9.30;99.90;;;;;;5031117;28;20072;-80
2023/06/04 01:55:25;;;;;;;2.63;1.80;;;9.30;99.90;;;;;;5065562;28;20091;-81
2023/06/04 01:57:51;;;;;;;3.65;2.03;;;9.20;99.90;;;;;;5048394;28;20101;-80
2023/06/04 02:00:17;;;;;;;3.63;1.80;;;10.50;99.90;;;;;;5064937;28;20512;-81
2023/06/04 02:02:49;;;;;;;3.72;1.77;;;9.20;99.90;;;;;;5065016;28;20056;-81
2023/06/04 02:05:15;;;;;;;5.78;2.15;;;9.20;99.90;;;;;;5063140;28;20060;-81
2023/06/04 02:07:44;;;;;;;4.85;2.10;;;10.60;99.90;;;;;;5065215;28;20052;-81
2023/06/04 02:10:13;;;;;;;9.90;1.90;;;10.40;99.90;;;;;;5063438;28;20400;-81
2023/06/04 02:12:52;;;;;;;4.78;2.30;;;10.30;99.90;;;;;;5048188;28;20073;-81
2023/06/04 02:15:17;;;;;;;5.13;2.17;;;10.20;99.90;;;;;;5047687;28;20332;-81
2023/06/04 02:17:45;;;;;;;3.85;1.85;;;9.80;99.90;;;;;;5030330;28;20045;-81
2023/06/04 02:20:11;;;;;;;7.13;2.05;;;9.10;99.90;;;;;;5047572;28;20064;-81
2023/06/04 02:22:37;;;;;;;4.45;2.05;;;9.10;99.90;;;;;;5063390;28;20573;-81
2023/06/04 02:25:04;;;;;;;3.58;1.83;;;9.10;99.90;;;;;;5048431;28;20044;-81
2023/06/04 02:27:30;;;;;;;6.63;1.98;;;9.00;99.90;;;;;;5030428;28;20094;-81
2023/06/04 02:29:56;;;;;;;7.13;1.92;;;9.10;99.90;;;;;;5032447;28;20119;-81
2023/06/04 02:32:22;;;;;;;5.55;1.70;;;9.40;99.90;;;;;;5032874;28;20153;-81
2023/06/04 02:34:48;;;;;;;3.78;1.92;;;9.90;99.90;;;;;;5047781;28;20144;-80
2023/06/04 02:37:14;;;;;;;5.47;1.80;;;9.00;99.90;;;;;;5049233;28;20043;-81
2023/06/04 02:39:40;;;;;;;4.78;2.08;;;9.40;99.90;;;;;;5064681;28;20056;-79
2023/06/04 02:42:07;;;;;;;2.75;1.88;;;9.10;99.90;;;;;;5066340;28;20690;-81
2023/06/04 02:44:32;;;;;;;4.55;1.65;;;9.10;99.90;;;;;;5047799;28;20053;-80
2023/06/04 02:46:58;;;;;;;3.15;1.60;;;9.10;99.90;;;;;;5032608;28;20123;-80
2023/06/04 02:49:24;;;;;;;5.63;1.73;;;9.10;99.90;;;;;;5031627;28;20093;-81
2023/06/04 02:51:50;;;;;;;5.55;1.45;;;10.30;99.90;;;;;;5064572;28;20463;-80
2023/06/04 02:54:16;;;;;;;3.53;1.20;;;9.00;99.90;;;;;;5064408;28;20064;-80
2023/06/04 02:56:43;;;;;;;2.17;1.17;;;10.50;99.90;;;;;;5031026;28;20501;-80
2023/06/04 02:59:09;;;;;;;3.05;1.20;;;9.00;99.90;;;;;;5063920;28;20052;-81
2023/06/04 03:01:35;;;;;;;3.50;1.13;;;9.00;99.90;;;;;;5046009;28;20076;-81
2023/06/04 03:04:04;;;;;;;4.28;1.10;;;10.10;99.90;;;;;;5063445;28;20080;-80
2023/06/04 03:06:34;;;;;;;4.57;1.70;;;8.90;99.90;;;;;;5063614;28;20419;-81
2023/06/04 03:09:00;;;;;;;5.03;1.17;;;8.90;99.90;;;;;;5063528;28;20105;-81
2023/06/04 03:11:27;;;;;;;4.15;1.40;;;8.90;99.90;;;;;;5063397;28;20446;-81
2023/06/04 03:13:53;;;;;;;3.17;1.23;;;8.90;99.90;;;;;;5046348;28;20415;-81
2023/06/04 03:16:20;;;;;;;6.10;1.63;;;8.90;99.90;;;;;;5031175;28;20041;-80
2023/06/04 03:18:46;;;;;;;2.47;1.52;;;8.90;99.90;;;;;;5045983;28;20086;-81
2023/06/04 03:21:12;;;;;;;2.92;1.15;;;8.90;99.90;;;;;;5063994;28;20126;-80
2023/06/04 03:23:38;;;;;;;4.00;1.42;;;9.90;99.90;;;;;;5045602;28;20041;-80
2023/06/04 03:26:05;;;;;;;2.78;1.50;;;8.90;99.90;;;;;;5029922;28;20040;-81
2023/06/04 03:28:32;;;;;;;10.43;1.60;;;8.90;99.90;;;;;;5046485;28;20083;-81
2023/06/04 03:30:58;;;;;;;2.53;1.30;;;8.90;99.90;;;;;;5063366;28;20122;-81
2023/06/04 03:33:24;;;;;;;1.45;0.80;;;9.10;99.90;;;;;;5064166;28;20388;-81
2023/06/04 03:35:53;;;;;;;3.40;1.40;;;10.50;99.90;;;;;;5046183;28;20048;-81
2023/06/04 03:38:19;;;;;;;4.20;1.20;;;8.80;99.90;;;;;;5047208;28;20044;-81
2023/06/04 03:40:45;;;;;;;2.75;1.15;;;9.70;99.90;;;;;;5045172;28;20044;-80
2023/06/04 03:43:11;;;;;;;5.25;1.55;;;8.90;99.90;;;;;;5046793;28;20082;-81
2023/06/04 03:45:37;;;;;;;4.78;1.73;;;9.40;99.90;;;;;;5046085;28;20048;-81
2023/06/04 03:48:03;;;;;;;1.98;1.35;;;9.70;99.90;;;;;;5062665;28;20063;-81
2023/06/04 03:50:29;;;;;;;7.50;1.20;;;9.90;99.90;;;;;;5046788;28;20037;-81
2023/06/04 03:52:55;;;;;;;2.60;1.35;;;9.00;99.90;;;;;;5046440;28;20388;-81
2023/06/04 03:55:21;;;;;;;4.05;1.40;;;10.90;99.90;;;;;;5063385;28;20040;-81
2023/06/04 03:57:47;;;;;;;4.80;1.40;;;9.00;99.90;;;;;;5045848;28;20047;-81
2023/06/04 04:00:14;;;;;;;8.50;1.45;;;9.00;99.90;;;;;;5047448;28;20132;-81
2023/06/04 04:02:41;;;;;;;2.97;1.08;;;9.10;99.90;;;;;;5045419;28;20051;-81
2023/06/04 04:05:07;;;;;;;4.70;1.55;;;9.10;99.90;;;;;;5045851;28;20345;-81
2023/06/04 04:07:32;;;;;;;2.08;1.35;;;9.10;99.90;;;;;;5013836;28;20400;-81
2023/06/04 04:09:58;;;;;;;1.20;1.00;;;9.20;99.90;;;;;;5045987;28;20040;-81
2023/06/04 04:12:24;;;;;;;2.03;1.17;;;10.10;99.90;;;;;;5045770;28;20047;-81
2023/06/04 04:14:50;;;;;;;2.22;1.17;;;9.60;99.90;;;;;;5045750;28;20041;-81
2023/06/04 04:17:15;;;;;;;2.20;1.00;;;9.30;99.90;;;;;;5046064;28;20044;-81
2023/06/04 04:19:41;;;;;;;2.97;1.25;;;9.30;99.90;;;;;;5028346;28;20079;-81
2023/06/04 04:22:08;;;;;;;1.83;1.15;;;9.30;99.90;;;;;;5062582;28;20045;-81
2023/06/04 04:24:36;;;;;;;3.95;1.50;;;9.00;99.90;;;;;;5061412;28;20063;-81
2023/06/04 04:27:03;;;;;;;1.80;1.35;;;9.50;99.90;;;;;;5045054;28;20048;-81
2023/06/04 04:29:34;;;;;;;4.40;1.60;;;9.30;99.90;;;;;;5045275;28;20131;-81
2023/06/04 04:32:01;;;;;;;5.07;2.05;;;9.70;99.90;;;;;;5045333;28;20040;-81
2023/06/04 04:34:27;;;;;;;3.72;1.95;;;9.70;99.90;;;;;;5029714;28;20349;-81
2023/06/04 04:36:53;;;;;;;2.78;1.88;;;9.70;99.90;;;;;;5044085;28;20051;-81
2023/06/04 04:39:24;;;;;;;4.30;1.73;;;8.10;99.90;;;;;;5028704;28;20083;-81
2023/06/04 04:41:50;;;;;;;4.50;1.92;;;9.90;99.90;;;;;;5027755;28;20040;-81
2023/06/04 04:44:15;;;;;;;2.28;1.52;;;9.90;99.90;;;;;;5061695;28;20045;-81
2023/06/04 04:46:41;;;;;;;6.18;2.30;;;10.00;99.90;;;;;;5061520;28;20071;-81
2023/06/04 04:49:07;;;;;;;4.18;2.33;;;10.10;99.90;;;;;;5061399;28;20056;-81
2023/06/04 04:51:32;;;;;;;6.25;2.03;;;10.20;99.90;;;;;;5045215;28;20044;-80
2023/06/04 04:54:02;;;;;;;3.38;2.28;;;10.30;99.90;;;;;;5044583;28;20175;-81
2023/06/04 04:56:28;;;;;;;5.80;2.72;;;10.50;99.90;;;;;;5062845;28;20119;-81
2023/06/04 04:58:55;;;;;;;7.18;3.17;;;10.60;99.90;;;;;;5065073;28;20124;-81
2023/06/04 05:01:21;;;;;;;4.38;2.95;;;10.70;99.90;;;;;;5066408;28;20458;-81
2023/06/04 05:03:48;;;;;;;8.98;2.97;;;10.80;99.90;;;;;;5065325;28;20363;-81
2023/06/04 05:06:14;;;;;;;4.80;2.67;;;10.90;99.90;;;;;;5047617;28;20075;-81
2023/06/04 05:08:40;;;;;;;4.07;2.97;;;11.00;99.90;;;;;;5066957;28;20045;-81
2023/06/04 05:11:06;;;;;;;7.13;3.45;;;11.90;99.90;;;;;;5064286;28;20479;-81
2023/06/04 05:13:31;;;;;;;8.88;4.32;;;9.70;99.90;;;;;;5064876;28;20126;-80
2023/06/04 05:15:58;;;;;;;4.72;3.40;;;11.40;99.90;;;;;;5065879;28;20108;-80
2023/06/04 05:18:28;;;;;;;6.05;3.63;;;11.50;99.90;;;;;;5064513;28;20059;-80
2023/06/04 05:20:55;;;;;;;7.68;3.88;;;11.60;99.90;;;;;;5064632;28;20096;-81
2023/06/04 05:23:21;;;;;;;7.78;3.90;;;11.70;99.90;;;;;;5063885;28;20040;-81
2023/06/04 05:25:48;;;;;;;8.75;3.85;;;11.90;99.90;;;;;;5048431;28;20052;-80
2023/06/04 05:28:15;;;;;;;10.60;4.05;;;12.00;99.90;;;;;;5063097;28;20040;-79
2023/06/04 05:30:41;;;;;;;7.10;4.40;;;12.10;99.90;;;;;;5064474;28;20471;-80
2023/06/04 05:33:17;;;;;;;9.63;3.75;;;12.20;99.90;;;;;;5046930;28;20048;-79
2023/06/04 05:35:48;;;;;;;8.65;3.28;;;12.30;99.90;;;;;;5017304;28;20045;-80
2023/06/04 05:38:18;;;;;;;7.65;4.45;;;12.40;99.90;;;;;;5047993;28;20057;-79
2023/06/04 05:40:45;;;;;;;10.02;4.05;;;12.50;99.90;;;;;;5047344;28;20427;-79
2023/06/04 05:43:11;;;;;;;9.55;3.53;;;12.60;99.90;;;;;;5064484;28;20045;-80
2023/06/04 05:45:36;;;;;;;10.95;3.90;;;12.80;99.90;;;;;;5047255;28;20068;-80
2023/06/04 05:48:03;;;;;;;5.22;2.95;;;12.80;99.90;;;;;;5047475;28;20036;-80
2023/06/04 05:50:28;;;;;;;5.88;3.78;;;11.80;99.90;;;;;;5063359;28;20064;-80
2023/06/04 05:52:54;;;;;;;8.60;3.13;;;13.00;99.90;;;;;;5065326;28;20053;-79
2023/06/04 05:55:21;;;;;;;9.15;3.08;;;13.10;99.90;;;;;;5065315;28;20405;-80
2023/06/04 05:57:46;;;;;;;6.95;3.03;;;13.20;99.90;;;;;;5064579;28;20052;-80
2023/06/04 06:00:13;;;;;;;7.78;3.03;;;13.30;99.90;;;;;;5065384;28;20052;-80
2023/06/04 06:02:40;;;;;;;8.10;2.45;;;13.40;99.90;;;;;;5063060;28;20071;-81
2023/06/04 06:05:10;;;;;;;9.65;2.78;;;13.50;99.90;;;;;;5072320;28;20330;-80
2023/06/04 06:07:36;;;;;;;8.88;2.38;;;13.60;99.90;;;;;;5049827;28;20087;-80
2023/06/04 06:10:02;;;;;;;4.88;2.88;;;13.70;99.90;;;;;;5050893;28;20149;-80
2023/06/04 06:12:28;;;;;;;7.05;2.67;;;13.80;99.90;;;;;;5086063;28;20082;-79
2023/06/04 06:14:54;;;;;;;6.82;2.50;;;13.90;99.90;;;;;;5049969;28;20035;-80
2023/06/04 06:17:19;;;;;;;5.82;2.53;;;13.90;99.90;;;;;;5033464;28;20486;-80
2023/06/04 06:19:45;;;;;;;6.10;1.90;;;14.00;99.90;;;;;;5033153;28;20052;-81
2023/06/04 06:22:11;;;;;;;7.10;2.85;;;14.10;99.90;;;;;;5067230;28;20044;-81
2023/06/04 06:24:37;;;;;;;5.90;2.50;;;14.20;99.90;;;;;;5049829;28;20052;-81
2023/06/04 06:27:03;;;;;;;6.55;2.30;;;14.30;99.90;;;;;;5033836;28;20484;-81
2023/06/04 06:29:29;;;;;;;4.68;1.85;;;14.30;99.90;;;;;;5066836;28;20076;-81
2023/06/04 06:31:55;;;;;;;5.95;1.92;;;14.40;99.90;;;;;;5050126;28;20518;-81
2023/06/04 06:34:20;;;;;;;5.07;1.90;;;14.50;99.90;;;;;;5066426;28;20043;-80
2023/06/04 06:36:47;;;;;;;5.57;2.08;;;14.60;99.90;;;;;;5065595;28;20241;-81
2023/06/04 06:39:12;;;;;;;4.43;1.70;;;14.70;99.90;;;;;;5049982;28;20166;-81
2023/06/04 06:41:38;;;;;;;4.00;1.45;;;14.80;99.90;;;;;;5032439;28;20557;-81
2023/06/04 06:44:05;;;;;;;5.75;1.13;;;14.90;99.90;;;;;;5032322;28;20040;-81
2023/06/04 06:46:30;;;;;;;6.47;1.45;;;15.00;99.90;;;;;;5049481;28;20548;-81
2023/06/04 06:48:56;;;;;;;5.40;1.38;;;15.00;99.90;;;;;;5065797;28;20040;-81
2023/06/04 06:51:22;;;;;;;4.20;1.08;;;15.10;99.90;;;;;;5050286;28;20040;-81
2023/06/04 06:53:50;;;;;;;3.25;1.00;;;15.10;99.90;;;;;;5015922;28;20433;-82
2023/06/04 06:56:17;;;;;;;4.43;1.42;;;15.20;99.90;;;;;;5033906;28;20033;-81
2023/06/04 06:58:46;;;;;;;2.60;0.85;;;15.30;99.90;;;;;;5049652;28;20134;-82
2023/06/04 07:01:13;;;;;;;4.22;0.90;;;15.50;99.90;;;;;;5066818;28;20044;-81
2023/06/04 07:03:41;;;;;;;4.50;1.02;;;15.60;99.90;;;;;;5049277;28;20036;-79
2023/06/04 07:06:07;;;;;;;4.55;1.20;;;15.70;99.90;;;;;;5033646;28;20051;-81
2023/06/04 07:08:33;;;;;;;3.00;0.80;;;15.70;99.90;;;;;;5032906;28;20044;-81
2023/06/04 07:11:01;;;;;;;6.57;1.55;;;15.90;99.90;;;;;;5049387;28;20051;-82
2023/06/04 07:13:27;;;;;;;1.88;0.90;;;15.90;99.90;;;;;;5050382;28;20077;-82
2023/06/04 07:15:53;;;;;;;2.13;0.60;;;16.00;99.90;;;;;;5049174;28;20076;-79
2023/06/04 07:18:19;;;;;;;2.05;0.68;;;16.10;99.90;;;;;;5032771;28;20086;-80
2023/06/04 07:20:45;;;;;;;2.95;0.95;;;16.20;99.90;;;;;;5015820;28;20044;-80
2023/06/04 07:23:10;;;;;;;1.30;0.60;;;16.30;99.90;;;;;;5032597;28;20069;-82
2023/06/04 07:25:36;;;;;;;4.10;0.47;;;16.40;99.90;;;;;;5049226;28;20048;-85
2023/06/04 07:28:03;;;;;;;4.38;0.75;;;16.50;99.90;;;;;;5049869;28;20410;-83
2023/06/04 07:30:33;;;;;;;1.88;1.00;;;16.50;99.90;;;;;;5067436;28;20048;-84
2023/06/04 07:32:59;;;;;;;3.05;0.95;;;16.60;99.90;;;;;;5034600;28;20046;-84
2023/06/04 07:35:24;;;;;;;8.32;1.35;;;16.80;99.90;;;;;;5051012;28;20041;-83
2023/06/04 07:37:50;;;;;;;3.58;1.05;;;16.80;99.90;;;;;;5033811;28;20080;-82
2023/06/04 07:40:17;;;;;;;2.72;1.00;;;16.80;99.90;;;;;;5066513;28;20044;-82
2023/06/04 07:42:43;;;;;;;2.03;0.52;;;16.80;99.90;;;;;;5065798;28;20040;-82
2023/06/04 07:45:09;;;;;;;4.22;1.00;;;16.90;99.90;;;;;;5066831;28;20044;-82
2023/06/04 07:47:38;;;;;;;3.95;1.17;;;17.00;99.90;;;;;;5049796;28;20418;-81
2023/06/04 07:50:05;;;;;;;6.07;1.08;;;17.10;99.90;;;;;;5051739;28;20423;-81
2023/06/04 07:52:31;;;;;;;4.80;1.05;;;17.10;99.90;;;;;;5068788;28;20040;-81
2023/06/04 07:54:57;;;;;;;9.18;1.10;;;17.10;99.90;;;;;;5068446;28;20070;-82
2023/06/04 07:57:23;;;;;;;7.40;1.20;;;17.60;99.90;;;;;;5069010;28;20108;-80
2023/06/04 07:59:50;;;;;;;3.13;1.13;;;17.20;99.90;;;;;;5069041;28;20052;-81
2023/06/04 08:02:16;;;;;;;2.90;0.90;;;17.40;99.90;;;;;;5068684;28;20040;-80
2023/06/04 08:04:42;;;;;;;3.30;0.90;;;17.40;99.90;;;;;;5067225;28;20613;-80
2023/06/04 08:07:08;;;;;;;9.07;4.25;;;17.50;99.90;;;;;;5068319;28;20402;-81
2023/06/04 08:09:34;;;;;;;4.53;0.93;;;17.60;99.90;;;;;;5068131;28;20074;-79
2023/06/04 08:12:00;;;;;;;4.43;1.20;;;17.70;99.90;;;;;;5050896;28;20047;-80
2023/06/04 08:14:27;;;;;;;4.82;0.73;;;17.70;99.90;;;;;;5050305;28;20044;-80
2023/06/04 08:16:56;;;;;;;2.67;0.68;;;17.80;99.90;;;;;;5051607;28;20352;-82
2023/06/04 08:19:23;;;;;;;2.70;0.68;;;17.90;99.90;;;;;;5067931;28;20044;-82
2023/06/04 08:21:49;;;;;;;3.58;0.75;;;18.00;99.90;;;;;;5034725;28;20184;-83
2023/06/04 08:24:15;;;;;;;2.90;0.73;;;18.00;99.90;;;;;;5034622;28;20069;-82
2023/06/04 08:26:41;;;;;;;4.13;0.82;;;18.00;99.90;;;;;;5068296;28;20090;-82
2023/06/04 08:29:07;;;;;;;2.33;0.60;;;18.10;99.90;;;;;;5067798;28;20131;-82
2023/06/04 08:31:33;;;;;;;3.28;1.08;;;18.10;99.90;;;;;;5068369;28;20071;-82
2023/06/04 08:33:59;;;;;;;2.40;0.60;;;18.10;99.90;;;;;;5052965;28;20491;-81
2023/06/04 08:36:25;;;;;;;1.60;0.57;;;18.20;99.90;;;;;;5038570;28;20044;-80
2023/06/04 08:38:52;;;;;;;2.40;0.70;;;18.30;99.90;;;;;;5054253;28;20038;-80
2023/06/04 08:41:23;;;;;;;3.75;1.10;;;18.40;99.90;;;;;;5038440;28;20394;-80
2023/06/04 08:43:50;;;;;;;5.00;1.10;;;18.50;99.90;;;;;;5089531;28;20040;-80
2023/06/04 08:46:17;;;;;;;3.28;0.73;;;18.60;99.90;;;;;;5055247;28;20040;-80
2023/06/04 08:48:43;;;;;;;2.85;0.90;;;18.70;99.90;;;;;;5071740;28;20139;-80
2023/06/04 08:51:10;;;;;;;3.10;0.70;;;18.70;99.90;;;;;;5070503;28;20068;-80
2023/06/04 08:53:36;;;;;;;5.03;0.68;;;18.60;99.90;;;;;;5053513;28;20047;-79
2023/06/04 08:56:03;;;;;;;3.40;0.80;;;18.50;99.90;;;;;;5070873;28;20066;-78
2023/06/04 08:58:35;;;;;;;2.80;1.10;;;18.50;99.90;;;;;;5071063;28;20325;-79
2023/06/04 09:01:01;;;;;;;3.60;0.70;;;18.50;99.90;;;;;;5038045;28;20559;-79
2023/06/04 09:03:32;;;;;;;4.40;0.80;;;18.50;99.90;;;;;;5053908;28;20546;-80
2023/06/04 09:05:59;;;;;;;2.22;0.75;;;18.60;99.90;;;;;;5070479;28;20059;-80
2023/06/04 09:08:27;;;;;;;5.10;1.20;;;18.60;99.90;;;;;;5088753;28;20040;-79
2023/06/04 09:10:55;;;;;;;3.40;0.75;;;18.70;99.90;;;;;;5054712;28;20047;-80
2023/06/04 09:13:27;;;;;;;1.20;0.60;;;18.80;99.90;;;;;;5070794;28;20241;-79
2023/06/04 09:16:04;;;;;;;3.38;0.98;;;19.00;99.90;;;;;;5070684;28;20127;-79
2023/06/04 09:18:30;;;;;;;2.33;0.65;;;19.20;99.90;;;;;;5071323;28;20056;-80
2023/06/04 09:21:03;;;;;;;3.80;0.70;;;19.10;99.90;;;;;;5070396;28;20042;-78
2023/06/04 09:23:30;;;;;;;1.85;0.60;;;19.30;99.90;;;;;;5054116;28;20044;-79
2023/06/04 09:25:56;;;;;;;3.88;0.98;;;19.40;99.90;;;;;;5069398;28;20086;-79
2023/06/04 09:28:30;;;;;;;2.63;0.90;;;19.50;99.90;;;;;;5052975;28;20087;-78
2023/06/04 09:30:56;;;;;;;1.30;0.70;;;19.50;99.90;;;;;;5070719;28;20147;-80
2023/06/04 09:33:21;;;;;;;2.72;0.82;;;19.60;99.90;;;;;;5053914;28;20152;-81
2023/06/04 09:35:55;;;;;;;0.90;0.40;;;19.60;99.90;;;;;;5070309;28;20044;-81
2023/06/04 09:38:21;;;;;;;4.75;0.88;;;19.50;99.90;;;;;;5071914;28;20055;-81
2023/06/04 09:40:49;;;;;;;4.10;0.73;;;19.30;99.90;;;;;;5053061;28;20052;-83
2023/06/04 09:43:24;;;;;;;3.78;0.85;;;19.30;99.90;;;;;;5067773;28;20101;-79
2023/06/04 09:45:50;;;;;;;1.42;0.63;;;19.40;99.80;;;;;;5051675;28;20046;-81
2023/06/04 09:48:22;;;;;;;1.77;0.75;;;19.50;99.90;;;;;;5052436;28;20051;-84
2023/06/04 09:50:48;;;;;;;1.05;0.80;;;19.50;99.60;;;;;;5051391;28;20051;-83
2023/06/04 09:53:25;;;;;;;2.97;1.05;;;19.50;99.90;;;;;;5068686;28;20081;-84
2023/06/04 09:55:58;;;;;;;2.08;0.77;;;19.50;99.90;;;;;;5068349;28;20468;-83
2023/06/04 09:58:27;;;;;;;2.22;0.70;;;19.60;99.90;;;;;;5034633;28;20134;-82
2023/06/04 10:00:55;;;;;;;1.13;0.50;;;19.70;99.90;;;;;;5068386;28;20040;-82
2023/06/04 10:03:25;;;;;;;7.18;1.02;;;19.80;99.70;;;;;;5051023;28;20120;-83
2023/06/04 10:05:53;;;;;;;5.97;1.33;;;19.70;99.40;;;;;;5064760;28;20403;-83
2023/06/04 10:08:25;;;;;;;3.80;0.50;;;19.80;99.50;;;;;;5063848;28;20055;-85
2023/06/04 10:10:52;;;;;;;2.65;0.55;;;19.80;99.10;;;;;;5065144;28;20036;-84
2023/06/04 10:13:19;;;;;;;2.72;0.82;;;19.90;99.20;;;;;;5047726;28;20123;-83
2023/06/04 10:15:49;;;;;;;1.58;0.60;;;19.90;99.10;;;;;;5047676;28;20044;-84
2023/06/04 10:18:15;;;;;;;1.30;0.63;;;19.90;99.00;;;;;;5048044;28;20044;-82
2023/06/04 10:20:41;;;;;;;2.13;0.77;;;20.00;99.00;;;;;;5047822;28;20055;-82
2023/06/04 10:23:08;;;;;;;2.05;0.45;;;20.00;98.80;;;;;;5048607;28;20045;-80
2023/06/04 10:25:37;;;;;;;2.47;0.60;;;20.10;98.60;;;;;;5065539;28;20048;-80
2023/06/04 10:28:03;;;;;;;2.08;0.70;;;20.20;98.50;;;;;;5047681;28;20663;-86
2023/06/04 10:30:30;;;;;;;3.40;0.50;;;20.20;98.40;;;;;;5063532;28;20087;-83
2023/06/04 10:32:59;;;;;;;2.50;0.73;;;20.20;98.30;;;;;;5047364;28;20089;-84
2023/06/04 10:35:35;;;;;;;2.53;0.40;;;20.30;98.10;;;;;;5048882;28;20087;-85
2023/06/04 10:38:16;;;;;;;2.05;1.10;;;20.40;97.40;;;;;;5063421;28;20076;-85
2023/06/04 10:40:43;;;;;;;3.83;2.33;;;20.40;98.00;;;;;;5048462;28;20132;-83
2023/06/04 10:43:13;;;;;;;5.65;0.80;;;20.50;97.90;;;;;;5047047;28;20080;-87
2023/06/04 10:45:40;;;;;;;2.05;0.70;;;20.70;97.70;;;;;;5048127;28;20050;-85
2023/06/04 10:48:08;;;;;;;5.05;1.00;;;20.90;97.40;;;;;;5048698;28;20037;-87
2023/06/04 10:50:35;;;;;;;2.13;0.50;;;20.80;97.30;;;;;;5065005;28;20075;-87
2023/06/04 10:53:03;;;;;;;1.70;0.60;;;20.70;97.20;;;;;;5048896;28;20140;-87
2023/06/04 10:55:30;;;;;;;2.75;0.70;;;20.70;97.20;;;;;;5045940;28;20111;-83
2023/06/04 10:58:00;;;;;;;3.38;0.70;;;20.70;97.20;;;;;;5063877;28;20102;-87
2023/06/04 11:00:43;;;;;;;2.85;0.70;;;20.90;96.60;;;;;;5063738;28;20045;-85
2023/06/04 11:03:13;;;;;;;1.67;0.73;;;20.70;96.30;;;;;;5031196;28;20396;-85
2023/06/04 11:05:41;;;;;;;1.95;0.52;;;20.70;96.60;;;;;;5065279;28;20052;-84
2023/06/04 11:08:10;;;;;;;2.50;0.63;;;20.70;96.50;;;;;;5063058;28;20934;-82
2023/06/04 11:10:44;;;;;;;2.20;0.85;;;20.80;96.60;;;;;;5063737;28;20095;-84
2023/06/04 11:13:10;;;;;;;1.88;0.75;;;20.80;96.20;;;;;;5046732;28;20131;-85
2023/06/04 11:15:48;;;;;;;2.42;0.55;;;20.80;96.20;;;;;;5062852;28;20138;-86
2023/06/04 11:18:18;;;;;;;0.68;0.40;;;20.90;95.80;;;;;;5046229;28;20049;-81
2023/06/04 11:20:46;;;;;;;2.55;0.50;;;20.90;95.80;;;;;;5064007;28;20112;-84
2023/06/04 11:23:13;;;;;;;3.72;1.08;;;21.00;95.90;;;;;;5046611;28;20051;-82
2023/06/04 11:25:39;;;;;;;3.35;1.55;;;21.10;95.60;;;;;;5044903;28;20041;-83
2023/06/04 11:28:05;;;;;;;0.70;0.50;;;21.10;95.40;;;;;;5045687;28;20045;-81
2023/06/04 11:30:30;;;;;;;1.67;0.68;;;21.20;95.30;;;;;;5029359;28;20032;-83
2023/06/04 11:33:04;;;;;;;1.98;0.70;;;21.20;95.30;;;;;;5063302;28;20055;-85
2023/06/04 11:35:31;;;;;;;1.35;0.55;;;21.20;94.80;;;;;;5063698;28;20062;-85
2023/06/04 11:37:58;;;;;;;6.13;1.10;;;21.10;95.00;;;;;;5062588;28;20036;-84
2023/06/04 11:40:26;;;;;;;2.30;0.70;;;21.00;95.10;;;;;;5046292;28;20036;-84
2023/06/04 11:42:52;;;;;;;1.65;0.68;;;21.00;95.00;;;;;;5046552;28;20072;-85
2023/06/04 11:45:21;;;;;;;3.65;0.82;;;21.00;94.70;;;;;;5063652;28;20448;-86
2023/06/04 11:47:47;;;;;;;1.58;0.55;;;21.10;95.00;;;;;;5045786;28;20041;-85
2023/06/04 11:50:13;;;;;;;1.98;0.43;;;21.20;94.80;;;;;;5063351;28;20149;-84
2023/06/04 11:52:39;;;;;;;2.40;0.70;;;21.30;94.70;;;;;;5046843;28;20512;-84
2023/06/04 11:55:09;;;;;;;2.42;0.80;;;21.40;94.70;;;;;;5045597;28;20052;-84
2023/06/04 11:57:36;;;;;;;4.57;0.63;;;21.50;94.50;;;;;;5046256;28;20097;-85
2023/06/04 12:00:02;;;;;;;2.92;0.47;;;21.50;94.20;;;;;;5063131;28;20041;-85
2023/06/04 12:02:27;;;;;;;1.98;0.55;;;21.50;93.90;;;;;;5047266;28;20399;-85
2023/06/04 12:04:53;;;;;;;3.97;0.47;;;21.60;94.00;;;;;;5045419;28;20061;-84
2023/06/04 12:07:24;;;;;;;2.45;0.60;;;21.70;93.80;;;;;;5015059;28;20052;-85
2023/06/04 12:09:50;;;;;;;3.63;0.43;;;21.60;93.00;;;;;;5067399;28;20049;-84
2023/06/04 12:12:23;;;;;;;2.53;0.77;;;21.60;93.30;;;;;;5066153;28;20040;-84
2023/06/04 12:14:57;;;;;;;2.47;0.50;;;21.60;93.20;;;;;;5067006;28;20456;-84
2023/06/04 12:17:23;;;;;;;3.42;0.50;;;21.70;93.10;;;;;;5066885;28;20047;-85
2023/06/04 12:19:50;;;;;;;2.03;0.60;;;21.70;92.90;;;;;;5050605;28;20040;-83
2023/06/04 12:22:16;;;;;;;2.13;0.65;;;21.70;92.90;;;;;;5068538;28;20036;-84
2023/06/04 12:24:48;;;;;;;3.13;0.50;;;21.80;92.90;;;;;;5049339;28;20044;-83
2023/06/04 12:27:14;;;;;;;1.08;0.57;;;21.70;92.70;;;;;;5066393;28;20080;-85
2023/06/04 12:29:40;;;;;;;2.20;0.70;;;21.80;92.90;;;;;;5032032;28;20063;-84
2023/06/04 12:32:08;;;;;;;1.50;0.57;;;21.80;92.70;;;;;;5049808;28;20048;-85
2023/06/04 12:34:35;;;;;;;4.20;0.60;;;21.90;92.70;;;;;;5032721;28;20500;-83
2023/06/04 12:37:03;;;;;;;1.67;0.63;;;22.00;93.00;;;;;;5049875;28;20405;-84
2023/06/04 12:39:32;;;;;;;2.08;0.65;;;22.20;93.20;;;;;;5050245;28;20488;-84
2023/06/04 12:41:58;;;;;;;5.05;0.73;;;22.20;93.00;;;;;;5050194;28;20526;-84
2023/06/04 12:44:23;;;;;;;2.20;0.93;;;22.10;92.80;;;;;;5016587;28;20131;-83
2023/06/04 12:46:50;;;;;;;3.03;1.00;;;22.10;92.60;;;;;;5048693;28;20095;-84
2023/06/04 12:49:15;;;;;;;2.67;0.70;;;22.10;92.40;;;;;;5033096;28;20431;-84